Time,TemperatureF,DewpointF,PressureIn,WindDirection,WindDirectionDegrees,WindSpeedMPH,WindSpeedGustMPH,Humidity,HourlyPrecipIn,Conditions,Clouds,dailyrainin,SoftwareType,DateUTC
2013-05-23 00:00:00,69.7,67.0,29.94,SSE,163,0.0,0.0,91,0.00,,,0.00,Wunderground v.1.15,2013-05-23 04:00:00,
2013-05-23 00:05:00,69.6,66.9,29.95,SSE,163,0.0,0.0,91,0.00,,,0.00,Wunderground v.1.15,2013-05-23 04:05:00,
2013-05-23 00:10:00,69.5,66.8,29.95,SSE,158,0.0,0.0,91,0.00,,,0.00,Wunderground v.1.15,2013-05-23 04:10:00,
2013-05-23 00:15:00,69.5,66.8,29.94,SSE,158,0.0,0.0,91,0.00,,,0.00,Wunderground v.1.15,2013-05-23 04:15:00,
2013-05-23 00:20:00,69.4,67.0,29.94,SSE,159,0.0,0.0,92,0.00,,,0.00,Wunderground v.1.15,2013-05-23 04:20:00,
2013-05-23 00:25:00,69.4,67.0,29.95,SSE,159,0.0,0.0,92,0.00,,,0.00,Wunderground v.1.15,2013-05-23 04:25:00,
2013-05-23 00:30:00,69.4,67.0,29.95,SSE,159,0.0,0.0,92,0.00,,,0.00,Wunderground v.1.15,2013-05-23 04:30:00,
2013-05-23 00:35:00,69.3,66.9,29.95,SSE,159,0.0,0.0,92,0.00,,,0.00,Wunderground v.1.15,2013-05-23 04:35:00,
2013-05-23 00:40:00,69.3,66.9,29.95,SSW,211,0.0,0.0,92,0.00,,,0.00,Wunderground v.1.15,2013-05-23 04:40:00,
2013-05-23 00:45:00,69.3,66.9,29.95,ESE,119,0.0,0.0,92,0.00,,,0.00,Wunderground v.1.15,2013-05-23 04:45:00,
2013-05-23 00:50:00,69.4,67.0,29.95,ESE,119,0.0,0.0,92,0.00,,,0.00,Wunderground v.1.15,2013-05-23 04:50:00,
2013-05-23 01:00:00,69.3,66.9,29.96,SSW,193,0.0,0.0,92,0.00,,,0.00,Wunderground v.1.15,2013-05-23 05:00:00,
2013-05-23 01:05:00,69.4,67.0,29.96,SSW,193,0.0,0.0,92,0.00,,,0.00,Wunderground v.1.15,2013-05-23 05:05:00,
2013-05-23 01:10:00,69.3,67.2,29.96,SSW,193,0.0,0.0,93,0.00,,,0.00,Wunderground v.1.15,2013-05-23 05:10:00,
2013-05-23 01:15:00,69.3,67.2,29.96,West,275,0.0,0.0,93,0.00,,,0.00,Wunderground v.1.15,2013-05-23 05:15:00,
2013-05-23 01:20:00,69.3,67.2,29.96,WSW,240,0.0,0.0,93,0.00,,,0.00,Wunderground v.1.15,2013-05-23 05:20:00,
2013-05-23 01:30:00,69.0,66.3,29.97,SW,223,0.0,0.0,91,0.16,,,0.02,Wunderground v.1.15,2013-05-23 05:30:00,
2013-05-23 01:35:00,68.8,66.4,29.97,SW,229,0.0,0.0,92,0.66,,,0.09,Wunderground v.1.15,2013-05-23 05:35:00,
2013-05-23 01:45:00,67.9,65.8,29.96,SW,234,0.0,0.0,93,0.26,,,0.15,Wunderground v.1.15,2013-05-23 05:45:00,
2013-05-23 01:50:00,67.5,65.4,29.96,WSW,240,0.0,0.0,93,0.08,,,0.15,Wunderground v.1.15,2013-05-23 05:50:00,
2013-05-23 01:55:00,67.2,65.1,29.96,WSW,240,0.0,0.0,93,0.06,,,0.16,Wunderground v.1.15,2013-05-23 05:55:00,
2013-05-23 02:00:00,66.9,64.8,29.95,WSW,240,0.0,0.0,93,0.09,,,0.17,Wunderground v.1.15,2013-05-23 06:00:00,
2013-05-23 02:05:00,66.8,65.0,29.95,WSW,240,0.0,0.0,94,0.13,,,0.18,Wunderground v.1.15,2013-05-23 06:05:00,
2013-05-23 02:10:00,66.7,64.9,29.96,WSW,240,0.0,0.0,94,0.09,,,0.18,Wunderground v.1.15,2013-05-23 06:10:00,
2013-05-23 02:15:00,66.5,64.7,29.95,WSW,240,0.0,0.0,94,0.08,,,0.19,Wunderground v.1.15,2013-05-23 06:15:00,
2013-05-23 02:20:00,66.5,65.0,29.96,WSW,240,0.0,0.0,95,0.07,,,0.20,Wunderground v.1.15,2013-05-23 06:20:00,
2013-05-23 02:30:00,66.5,65.0,29.96,WSW,240,0.0,0.0,95,0.06,,,0.20,Wunderground v.1.15,2013-05-23 06:30:00,
2013-05-23 02:35:00,66.4,64.9,29.96,WSW,240,0.0,0.0,95,0.04,,,0.21,Wunderground v.1.15,2013-05-23 06:35:00,
2013-05-23 02:40:00,66.4,64.9,29.95,WSW,240,0.0,0.0,95,0.04,,,0.21,Wunderground v.1.15,2013-05-23 06:40:00,
2013-05-23 02:45:00,66.4,64.9,29.95,WSW,240,0.0,0.0,95,0.04,,,0.21,Wunderground v.1.15,2013-05-23 06:45:00,
2013-05-23 02:50:00,66.3,64.8,29.95,WSW,240,0.0,0.0,95,0.31,,,0.25,Wunderground v.1.15,2013-05-23 06:50:00,
2013-05-23 02:55:00,66.3,65.1,29.95,WSW,240,0.0,0.0,96,0.10,,,0.25,Wunderground v.1.15,2013-05-23 06:55:00,
2013-05-23 03:00:00,66.3,65.1,29.95,WSW,240,0.0,0.0,96,0.35,,,0.27,Wunderground v.1.15,2013-05-23 07:00:00,
2013-05-23 03:05:00,66.3,65.1,29.95,WSW,240,0.0,0.0,96,0.11,,,0.27,Wunderground v.1.15,2013-05-23 07:05:00,
2013-05-23 03:10:00,66.3,65.1,29.95,WSW,240,0.0,0.0,96,0.07,,,0.28,Wunderground v.1.15,2013-05-23 07:10:00,
2013-05-23 03:15:00,66.4,65.2,29.95,WSW,240,0.0,0.0,96,0.07,,,0.28,Wunderground v.1.15,2013-05-23 07:15:00,
2013-05-23 03:20:00,66.3,65.1,29.95,WSW,240,0.0,0.0,96,0.05,,,0.28,Wunderground v.1.15,2013-05-23 07:20:00,
2013-05-23 03:25:00,66.3,65.1,29.94,SSE,166,0.0,0.0,96,0.04,,,0.28,Wunderground v.1.15,2013-05-23 07:25:00,
2013-05-23 03:30:00,66.3,65.1,29.94,SSE,167,0.0,0.0,96,0.64,,,0.35,Wunderground v.1.15,2013-05-23 07:30:00,
2013-05-23 03:35:00,66.3,65.1,29.93,SSE,167,0.0,0.0,96,0.14,,,0.37,Wunderground v.1.15,2013-05-23 07:35:00,
2013-05-23 03:40:00,66.2,65.0,29.94,SSE,167,0.0,0.0,96,0.11,,,0.37,Wunderground v.1.15,2013-05-23 07:40:00,
2013-05-23 03:45:00,66.3,65.1,29.93,SSE,167,0.0,0.0,96,0.06,,,0.37,Wunderground v.1.15,2013-05-23 07:45:00,
2013-05-23 03:50:00,66.2,65.0,29.94,SSE,167,0.0,0.0,96,0.04,,,0.38,Wunderground v.1.15,2013-05-23 07:50:00,
2013-05-23 04:00:00,66.2,65.0,29.94,SSE,167,0.0,0.0,96,0.04,,,0.38,Wunderground v.1.15,2013-05-23 08:00:00,
2013-05-23 04:05:00,66.1,64.9,29.93,SSE,167,0.0,0.0,96,0.04,,,0.38,Wunderground v.1.15,2013-05-23 08:05:00,
2013-05-23 04:10:00,66.0,64.8,29.93,SSE,167,0.0,0.0,96,0.00,,,0.38,Wunderground v.1.15,2013-05-23 08:10:00,
2013-05-23 04:15:00,65.9,64.7,29.93,SSE,167,0.0,0.0,96,0.00,,,0.38,Wunderground v.1.15,2013-05-23 08:15:00,
2013-05-23 04:20:00,65.8,64.6,29.94,SSE,167,0.0,0.0,96,0.00,,,0.38,Wunderground v.1.15,2013-05-23 08:20:00,
2013-05-23 04:25:00,65.7,64.5,29.93,SSE,167,0.0,0.0,96,0.00,,,0.38,Wunderground v.1.15,2013-05-23 08:25:00,
2013-05-23 04:30:00,65.6,64.4,29.93,SSE,167,0.0,0.0,96,0.00,,,0.38,Wunderground v.1.15,2013-05-23 08:30:00,
2013-05-23 04:40:00,65.5,64.3,29.93,SSE,167,0.0,0.0,96,0.00,,,0.38,Wunderground v.1.15,2013-05-23 08:40:00,
2013-05-23 04:50:00,65.4,64.2,29.93,SSE,167,0.0,0.0,96,0.00,,,0.38,Wunderground v.1.15,2013-05-23 08:50:00,
2013-05-23 04:55:00,65.4,64.2,29.93,SSE,167,0.0,0.0,96,0.00,,,0.38,Wunderground v.1.15,2013-05-23 08:55:00,
2013-05-23 05:00:00,65.3,64.1,29.94,SSE,167,0.0,0.0,96,0.00,,,0.38,Wunderground v.1.15,2013-05-23 09:00:00,
2013-05-23 05:05:00,65.3,64.1,29.94,SSE,167,0.0,0.0,96,0.00,,,0.38,Wunderground v.1.15,2013-05-23 09:05:00,
2013-05-23 05:10:00,65.3,64.1,29.94,SSE,167,0.0,0.0,96,0.00,,,0.38,Wunderground v.1.15,2013-05-23 09:10:00,
2013-05-23 05:15:00,65.3,64.4,29.94,SSE,167,0.0,0.0,97,0.00,,,0.38,Wunderground v.1.15,2013-05-23 09:15:00,
2013-05-23 05:20:00,65.3,64.4,29.94,SSE,167,0.0,0.0,97,0.00,,,0.38,Wunderground v.1.15,2013-05-23 09:20:00,
2013-05-23 05:25:00,65.4,64.5,29.94,SSE,167,0.0,0.0,97,0.00,,,0.38,Wunderground v.1.15,2013-05-23 09:25:00,
2013-05-23 05:30:00,65.4,64.5,29.94,SSW,194,0.0,0.0,97,0.00,,,0.38,Wunderground v.1.15,2013-05-23 09:30:00,
2013-05-23 05:35:00,65.5,64.6,29.94,SSW,194,0.0,0.0,97,0.31,,,0.41,Wunderground v.1.15,2013-05-23 09:35:00,
2013-05-23 05:40:00,65.6,64.7,29.94,South,188,0.0,0.0,97,0.20,,,0.42,Wunderground v.1.15,2013-05-23 09:40:00,
2013-05-23 05:45:00,65.7,64.8,29.93,ENE,67,0.0,0.0,97,0.09,,,0.43,Wunderground v.1.15,2013-05-23 09:45:00,
2013-05-23 05:50:00,65.7,64.8,29.92,ENE,67,0.0,0.0,97,0.27,,,0.45,Wunderground v.1.15,2013-05-23 09:50:00,
2013-05-23 06:00:00,65.7,64.8,29.93,ENE,67,0.0,0.0,97,0.29,,,0.49,Wunderground v.1.15,2013-05-23 10:00:00,
2013-05-23 06:05:00,65.7,64.8,29.93,ENE,67,0.0,0.0,97,0.19,,,0.50,Wunderground v.1.15,2013-05-23 10:05:00,
2013-05-23 06:10:00,65.7,64.8,29.93,ENE,67,0.0,0.0,97,0.12,,,0.51,Wunderground v.1.15,2013-05-23 10:10:00,
2013-05-23 06:20:00,65.6,64.7,29.92,ENE,67,0.0,0.0,97,0.06,,,0.52,Wunderground v.1.15,2013-05-23 10:20:00,
2013-05-23 06:25:00,65.6,64.7,29.93,ENE,67,0.0,0.0,97,0.06,,,0.52,Wunderground v.1.15,2013-05-23 10:25:00,
2013-05-23 06:30:00,65.6,64.7,29.93,ENE,67,0.0,0.0,97,0.05,,,0.52,Wunderground v.1.15,2013-05-23 10:30:00,
2013-05-23 06:35:00,65.6,64.7,29.93,ENE,67,0.0,0.0,97,0.00,,,0.52,Wunderground v.1.15,2013-05-23 10:35:00,
2013-05-23 06:40:00,65.6,64.7,29.93,ENE,67,0.0,0.0,97,0.00,,,0.52,Wunderground v.1.15,2013-05-23 10:40:00,
2013-05-23 06:50:00,65.6,64.7,29.93,SW,223,0.0,0.0,97,0.00,,,0.52,Wunderground v.1.15,2013-05-23 10:50:00,
2013-05-23 07:00:00,65.6,64.7,29.93,SSW,211,0.0,0.0,97,0.00,,,0.52,Wunderground v.1.15,2013-05-23 11:00:00,
2013-05-23 07:05:00,65.7,64.8,29.93,SSW,211,0.0,0.0,97,0.00,,,0.52,Wunderground v.1.15,2013-05-23 11:05:00,
2013-05-23 07:10:00,65.7,64.8,29.93,SSW,211,0.0,0.0,97,0.00,,,0.52,Wunderground v.1.15,2013-05-23 11:10:00,
2013-05-23 07:15:00,65.7,64.8,29.93,SSW,211,0.0,0.0,97,0.00,,,0.52,Wunderground v.1.15,2013-05-23 11:15:00,
2013-05-23 07:20:00,65.8,64.9,29.94,SSW,211,0.0,0.0,97,0.00,,,0.52,Wunderground v.1.15,2013-05-23 11:20:00,
2013-05-23 07:25:00,65.9,65.0,29.93,SSW,211,0.0,0.0,97,0.00,,,0.52,Wunderground v.1.15,2013-05-23 11:25:00,
2013-05-23 07:30:00,66.0,65.1,29.94,SSW,211,0.0,0.0,97,0.00,,,0.52,Wunderground v.1.15,2013-05-23 11:30:00,
2013-05-23 07:40:00,66.2,65.3,29.94,SSW,211,0.0,0.0,97,0.00,,,0.52,Wunderground v.1.15,2013-05-23 11:40:00,
2013-05-23 07:50:00,66.5,65.6,29.94,SW,216,0.0,0.0,97,0.00,,,0.52,Wunderground v.1.15,2013-05-23 11:50:00,
2013-05-23 07:55:00,66.6,65.7,29.94,SW,216,0.0,0.0,97,0.00,,,0.52,Wunderground v.1.15,2013-05-23 11:55:00,
2013-05-23 08:00:00,66.8,65.9,29.94,SW,216,0.0,0.0,97,0.00,,,0.52,Wunderground v.1.15,2013-05-23 12:00:00,
2013-05-23 08:05:00,67.0,66.1,29.94,SW,216,0.0,0.0,97,0.00,,,0.52,Wunderground v.1.15,2013-05-23 12:05:00,
2013-05-23 08:10:00,67.2,66.6,29.93,SW,215,0.0,0.0,98,0.00,,,0.52,Wunderground v.1.15,2013-05-23 12:10:00,
2013-05-23 08:15:00,67.5,66.6,29.93,SSW,195,0.0,0.0,97,0.00,,,0.52,Wunderground v.1.15,2013-05-23 12:15:00,
2013-05-23 08:20:00,67.7,66.8,29.93,SSW,211,0.0,0.0,97,0.00,,,0.52,Wunderground v.1.15,2013-05-23 12:20:00,
2013-05-23 08:25:00,67.9,67.3,29.93,South,180,0.0,0.0,98,0.00,,,0.52,Wunderground v.1.15,2013-05-23 12:25:00,
2013-05-23 08:30:00,68.0,67.4,29.93,SSE,150,0.0,0.0,98,0.00,,,0.52,Wunderground v.1.15,2013-05-23 12:30:00,
2013-05-23 08:35:00,68.1,67.5,29.93,SSE,151,0.0,0.0,98,0.00,,,0.52,Wunderground v.1.15,2013-05-23 12:35:00,
2013-05-23 08:40:00,68.2,67.3,29.93,SSE,151,0.0,1.0,97,0.00,,,0.52,Wunderground v.1.15,2013-05-23 12:40:00,
2013-05-23 08:45:00,68.3,67.4,29.93,SSE,151,0.0,1.0,97,0.00,,,0.52,Wunderground v.1.15,2013-05-23 12:45:00,
2013-05-23 08:50:00,68.5,67.9,29.93,South,189,0.0,0.0,98,0.00,,,0.52,Wunderground v.1.15,2013-05-23 12:50:00,
2013-05-23 08:55:00,68.6,68.0,29.93,SSE,152,0.0,0.0,98,0.00,,,0.52,Wunderground v.1.15,2013-05-23 12:55:00,
2013-05-23 09:00:00,68.5,67.6,29.93,WSW,252,0.0,0.0,97,0.00,,,0.52,Wunderground v.1.15,2013-05-23 13:00:00,
2013-05-23 09:05:00,68.7,67.8,29.93,WSW,252,0.0,0.0,97,0.00,,,0.52,Wunderground v.1.15,2013-05-23 13:05:00,
2013-05-23 09:10:00,68.9,68.0,29.93,NNW,329,0.0,0.0,97,0.00,,,0.52,Wunderground v.1.15,2013-05-23 13:10:00,
2013-05-23 09:20:00,69.3,68.4,29.93,WNW,291,0.0,0.0,97,0.00,,,0.52,Wunderground v.1.15,2013-05-23 13:20:00,
2013-05-23 09:30:00,69.4,68.2,29.93,South,180,0.0,0.0,96,0.00,,,0.52,Wunderground v.1.15,2013-05-23 13:30:00,
2013-05-23 09:40:00,69.7,68.5,29.92,SW,232,0.0,0.0,96,0.00,,,0.52,Wunderground v.1.15,2013-05-23 13:40:00,
2013-05-23 09:45:00,70.1,68.6,29.93,SW,236,0.0,0.0,95,0.00,,,0.52,Wunderground v.1.15,2013-05-23 13:45:00,
2013-05-23 09:50:00,70.3,68.8,29.93,SW,215,0.0,0.0,95,0.00,,,0.52,Wunderground v.1.15,2013-05-23 13:50:00,
2013-05-23 09:55:00,70.5,68.7,29.92,South,182,0.0,0.0,94,0.00,,,0.52,Wunderground v.1.15,2013-05-23 13:55:00,
2013-05-23 10:00:00,71.0,69.2,29.93,South,188,0.0,0.0,94,0.00,,,0.52,Wunderground v.1.15,2013-05-23 14:00:00,
2013-05-23 10:05:00,71.4,68.3,29.93,SSE,165,0.0,0.0,90,0.00,,,0.52,Wunderground v.1.15,2013-05-23 14:05:00,
2013-05-23 10:10:00,72.1,69.3,29.93,SSW,211,0.0,0.0,91,0.00,,,0.52,Wunderground v.1.15,2013-05-23 14:10:00,
2013-05-23 10:20:00,72.4,69.0,29.93,North,360,0.0,0.0,89,0.00,,,0.52,Wunderground v.1.15,2013-05-23 14:20:00,
2013-05-23 10:30:00,73.0,69.2,29.92,WSW,239,0.0,0.0,88,0.00,,,0.52,Wunderground v.1.15,2013-05-23 14:30:00,
2013-05-23 10:40:00,73.2,68.8,29.93,WNW,292,0.0,0.0,86,0.00,,,0.52,Wunderground v.1.15,2013-05-23 14:40:00,
2013-05-23 10:45:00,73.2,68.4,29.93,SW,231,0.0,0.0,85,0.00,,,0.52,Wunderground v.1.15,2013-05-23 14:45:00,
2013-05-23 10:50:00,73.5,68.0,29.93,SW,232,0.0,0.0,83,0.00,,,0.52,Wunderground v.1.15,2013-05-23 14:50:00,
2013-05-23 10:55:00,73.9,68.4,29.93,SW,232,0.0,0.0,83,0.00,,,0.52,Wunderground v.1.15,2013-05-23 14:55:00,
2013-05-23 11:00:00,74.5,69.7,29.93,SW,229,0.0,0.0,85,0.00,,,0.52,Wunderground v.1.15,2013-05-23 15:00:00,
2013-05-23 11:05:00,75.1,69.9,29.93,SW,234,0.0,0.0,84,0.00,,,0.52,Wunderground v.1.15,2013-05-23 15:05:00,
2013-05-23 11:10:00,75.6,69.4,29.93,SSE,148,0.0,0.0,81,0.00,,,0.52,Wunderground v.1.15,2013-05-23 15:10:00,
2013-05-23 11:15:00,75.9,68.5,29.93,SW,216,0.0,0.0,78,0.00,,,0.52,Wunderground v.1.15,2013-05-23 15:15:00,
2013-05-23 11:20:00,76.0,69.0,29.93,SW,216,0.0,0.0,79,0.00,,,0.52,Wunderground v.1.15,2013-05-23 15:20:00,
2013-05-23 11:25:00,76.0,69.4,29.92,South,175,0.0,0.0,80,0.00,,,0.52,Wunderground v.1.15,2013-05-23 15:25:00,
2013-05-23 11:30:00,75.7,69.8,29.92,South,178,0.0,0.0,82,0.00,,,0.52,Wunderground v.1.15,2013-05-23 15:30:00,
2013-05-23 11:35:00,75.7,68.7,29.92,NNW,328,0.0,0.0,79,0.00,,,0.52,Wunderground v.1.15,2013-05-23 15:35:00,
2013-05-23 11:40:00,76.0,67.9,29.92,SSW,196,0.0,0.0,76,0.00,,,0.52,Wunderground v.1.15,2013-05-23 15:40:00,
2013-05-23 11:45:00,76.2,69.2,29.92,SSW,198,0.0,0.0,79,0.00,,,0.52,Wunderground v.1.15,2013-05-23 15:45:00,
2013-05-23 11:50:00,76.3,69.7,29.92,SSW,198,0.0,0.0,80,0.00,,,0.52,Wunderground v.1.15,2013-05-23 15:50:00,
2013-05-23 11:55:00,76.4,68.7,29.92,SSW,198,0.0,0.0,77,0.00,,,0.52,Wunderground v.1.15,2013-05-23 15:55:00,
2013-05-23 12:00:00,76.6,69.2,29.92,SSW,196,0.0,0.0,78,0.00,,,0.52,Wunderground v.1.15,2013-05-23 16:00:00,
2013-05-23 12:05:00,76.7,68.6,29.92,SSW,196,0.0,0.0,76,0.00,,,0.52,Wunderground v.1.15,2013-05-23 16:05:00,
2013-05-23 12:10:00,76.9,69.1,29.92,SSW,196,0.0,0.0,77,0.00,,,0.52,Wunderground v.1.15,2013-05-23 16:10:00,
2013-05-23 12:20:00,77.6,68.3,29.92,SSW,201,0.0,0.0,73,0.00,,,0.52,Wunderground v.1.15,2013-05-23 16:20:00,
2013-05-23 12:30:00,78.4,69.0,29.91,SSW,201,0.0,0.0,73,0.00,,,0.52,Wunderground v.1.15,2013-05-23 16:30:00,
2013-05-23 12:40:00,78.2,70.0,29.92,SSW,201,0.0,0.0,76,0.00,,,0.52,Wunderground v.1.15,2013-05-23 16:40:00,
2013-05-23 12:50:00,78.4,67.4,29.91,WNW,294,0.0,0.0,69,0.00,,,0.52,Wunderground v.1.15,2013-05-23 16:50:00,
2013-05-23 13:00:00,78.6,68.0,29.91,SW,230,0.0,0.0,70,0.00,,,0.52,Wunderground v.1.15,2013-05-23 17:00:00,
2013-05-23 13:05:00,78.9,69.5,29.91,SW,230,0.0,0.0,73,0.00,,,0.52,Wunderground v.1.15,2013-05-23 17:05:00,
2013-05-23 13:10:00,79.0,70.0,29.91,WSW,242,0.0,0.0,74,0.00,,,0.52,Wunderground v.1.15,2013-05-23 17:10:00,
2013-05-23 13:20:00,79.6,69.0,29.90,East,98,0.0,0.0,70,0.00,,,0.52,Wunderground v.1.15,2013-05-23 17:20:00,
2013-05-23 13:25:00,79.6,67.7,29.90,South,172,0.0,0.0,67,0.00,,,0.52,Wunderground v.1.15,2013-05-23 17:25:00,
2013-05-23 13:30:00,79.5,69.7,29.90,SSW,200,0.0,0.0,72,0.00,,,0.52,Wunderground v.1.15,2013-05-23 17:30:00,
2013-05-23 13:35:00,79.6,69.4,29.90,ESE,116,0.0,0.0,71,0.00,,,0.52,Wunderground v.1.15,2013-05-23 17:35:00,
2013-05-23 13:40:00,79.3,68.2,29.89,SSW,213,0.0,0.0,69,0.00,,,0.52,Wunderground v.1.15,2013-05-23 17:40:00,
2013-05-23 13:45:00,79.2,69.8,29.89,SSW,211,0.0,0.0,73,0.00,,,0.52,Wunderground v.1.15,2013-05-23 17:45:00,
2013-05-23 13:50:00,78.9,69.1,29.89,SW,219,0.0,0.0,72,0.00,,,0.52,Wunderground v.1.15,2013-05-23 17:50:00,
2013-05-23 13:55:00,78.9,69.9,29.89,SW,219,0.0,0.0,74,0.00,,,0.52,Wunderground v.1.15,2013-05-23 17:55:00,
2013-05-23 14:00:00,78.8,69.8,29.89,SW,219,0.0,0.0,74,0.00,,,0.52,Wunderground v.1.15,2013-05-23 18:00:00,
2013-05-23 14:10:00,78.5,69.9,29.88,SW,219,0.0,0.0,75,0.00,,,0.52,Wunderground v.1.15,2013-05-23 18:10:00,
2013-05-23 14:15:00,78.3,68.9,29.88,SE,145,0.0,0.0,73,0.00,,,0.52,Wunderground v.1.15,2013-05-23 18:15:00,
2013-05-23 14:20:00,78.1,68.7,29.87,SSW,213,0.0,0.0,73,0.00,,,0.52,Wunderground v.1.15,2013-05-23 18:20:00,
2013-05-23 14:25:00,78.2,68.8,29.87,SSW,213,0.0,0.0,73,0.00,,,0.52,Wunderground v.1.15,2013-05-23 18:25:00,
2013-05-23 14:30:00,78.5,69.5,29.87,WSW,248,0.0,0.0,74,0.00,,,0.52,Wunderground v.1.15,2013-05-23 18:30:00,
2013-05-23 14:35:00,78.9,69.5,29.87,WSW,242,0.0,0.0,73,0.00,,,0.52,Wunderground v.1.15,2013-05-23 18:35:00,
2013-05-23 14:40:00,79.7,69.5,29.87,West,271,0.0,0.0,71,0.00,,,0.52,Wunderground v.1.15,2013-05-23 18:40:00,
2013-05-23 14:45:00,79.8,69.6,29.86,SW,232,0.0,0.0,71,0.00,,,0.52,Wunderground v.1.15,2013-05-23 18:45:00,
2013-05-23 14:50:00,80.0,68.9,29.86,NNW,346,0.0,0.0,69,0.00,,,0.52,Wunderground v.1.15,2013-05-23 18:50:00,
2013-05-23 14:55:00,79.8,68.3,29.86,NNW,331,0.0,0.0,68,0.00,,,0.52,Wunderground v.1.15,2013-05-23 18:55:00,
2013-05-23 15:00:00,79.8,67.9,29.86,ESE,107,0.0,0.0,67,0.00,,,0.52,Wunderground v.1.15,2013-05-23 19:00:00,
2013-05-23 15:05:00,79.8,69.1,29.86,NNW,348,0.0,0.0,70,0.00,,,0.52,Wunderground v.1.15,2013-05-23 19:05:00,
2013-05-23 15:10:00,79.9,68.8,29.85,ESE,118,0.0,0.0,69,0.00,,,0.52,Wunderground v.1.15,2013-05-23 19:10:00,
2013-05-23 15:15:00,80.0,68.9,29.85,SE,144,0.0,0.0,69,0.00,,,0.52,Wunderground v.1.15,2013-05-23 19:15:00,
2013-05-23 15:20:00,80.0,69.3,29.85,SSW,202,0.0,0.0,70,0.00,,,0.52,Wunderground v.1.15,2013-05-23 19:20:00,
2013-05-23 15:25:00,79.9,70.1,29.85,SSW,202,0.0,0.0,72,0.00,,,0.52,Wunderground v.1.15,2013-05-23 19:25:00,
2013-05-23 15:30:00,79.9,69.2,29.85,SSW,202,0.0,0.0,70,0.00,,,0.52,Wunderground v.1.15,2013-05-23 19:30:00,
2013-05-23 15:35:00,80.0,69.3,29.85,SSW,196,0.0,3.0,70,0.00,,,0.52,Wunderground v.1.15,2013-05-23 19:35:00,
2013-05-23 15:40:00,79.5,69.3,29.84,WSW,253,0.0,0.0,71,0.00,,,0.52,Wunderground v.1.15,2013-05-23 19:40:00,
2013-05-23 15:50:00,79.2,69.4,29.84,WSW,253,0.0,0.0,72,0.00,,,0.52,Wunderground v.1.15,2013-05-23 19:50:00,
2013-05-23 15:55:00,79.4,69.6,29.84,WSW,253,0.0,0.0,72,0.00,,,0.52,Wunderground v.1.15,2013-05-23 19:55:00,
2013-05-23 16:00:00,79.4,70.0,29.84,WSW,253,0.0,0.0,73,0.00,,,0.52,Wunderground v.1.15,2013-05-23 20:00:00,
2013-05-23 16:05:00,79.4,69.2,29.84,WSW,253,0.0,0.0,71,0.00,,,0.52,Wunderground v.1.15,2013-05-23 20:05:00,
2013-05-23 16:10:00,79.4,70.4,29.84,WSW,253,0.0,0.0,74,0.00,,,0.52,Wunderground v.1.15,2013-05-23 20:10:00,
2013-05-23 16:15:00,79.4,69.2,29.84,West,267,0.0,0.0,71,0.00,,,0.52,Wunderground v.1.15,2013-05-23 20:15:00,
2013-05-23 16:20:00,79.4,69.6,29.83,West,267,0.0,0.0,72,0.00,,,0.52,Wunderground v.1.15,2013-05-23 20:20:00,
2013-05-23 16:30:00,79.1,69.7,29.83,SW,226,0.0,0.0,73,0.00,,,0.52,Wunderground v.1.15,2013-05-23 20:30:00,
2013-05-23 16:40:00,78.2,68.8,29.83,West,267,0.0,0.0,73,0.00,,,0.52,Wunderground v.1.15,2013-05-23 20:40:00,
2013-05-23 16:45:00,77.9,68.5,29.83,West,263,0.0,0.0,73,0.00,,,0.52,Wunderground v.1.15,2013-05-23 20:45:00,
2013-05-23 16:50:00,77.6,69.0,29.83,West,263,0.0,0.0,75,0.00,,,0.52,Wunderground v.1.15,2013-05-23 20:50:00,
2013-05-23 16:55:00,77.4,69.2,29.83,West,263,0.0,0.0,76,0.00,,,0.52,Wunderground v.1.15,2013-05-23 20:55:00,
2013-05-23 17:00:00,77.2,69.4,29.83,West,263,0.0,0.0,77,0.00,,,0.52,Wunderground v.1.15,2013-05-23 21:00:00,
2013-05-23 17:05:00,76.9,69.1,29.83,West,265,0.0,0.0,77,0.00,,,0.52,Wunderground v.1.15,2013-05-23 21:05:00,
2013-05-23 17:10:00,76.6,69.2,29.83,West,265,0.0,0.0,78,0.00,,,0.52,Wunderground v.1.15,2013-05-23 21:10:00,
2013-05-23 17:20:00,75.8,68.8,29.83,West,265,0.0,0.0,79,0.00,,,0.52,Wunderground v.1.15,2013-05-23 21:20:00,
2013-05-23 17:30:00,75.3,68.7,29.84,West,265,0.0,0.0,80,0.00,,,0.52,Wunderground v.1.15,2013-05-23 21:30:00,
2013-05-23 17:40:00,74.9,68.7,29.83,SW,230,0.0,0.0,81,0.00,,,0.52,Wunderground v.1.15,2013-05-23 21:40:00,
2013-05-23 17:45:00,74.7,68.5,29.83,SW,229,0.0,0.0,81,0.00,,,0.52,Wunderground v.1.15,2013-05-23 21:45:00,
2013-05-23 17:50:00,74.5,68.3,29.83,SW,229,0.0,0.0,81,0.00,,,0.52,Wunderground v.1.15,2013-05-23 21:50:00,
2013-05-23 17:55:00,74.3,68.1,29.83,SW,229,0.0,0.0,81,0.00,,,0.52,Wunderground v.1.15,2013-05-23 21:55:00,
2013-05-23 18:00:00,74.2,68.0,29.82,SW,229,0.0,0.0,81,0.00,,,0.52,Wunderground v.1.15,2013-05-23 22:00:00,
2013-05-23 18:05:00,74.0,68.2,29.82,SW,229,0.0,0.0,82,0.00,,,0.52,Wunderground v.1.15,2013-05-23 22:05:00,
2013-05-23 18:10:00,74.0,68.5,29.82,SW,229,0.0,0.0,83,0.00,,,0.52,Wunderground v.1.15,2013-05-23 22:10:00,
2013-05-23 18:15:00,73.8,68.3,29.82,SW,229,0.0,0.0,83,0.00,,,0.52,Wunderground v.1.15,2013-05-23 22:15:00,
2013-05-23 18:20:00,73.5,68.4,29.82,SW,229,0.0,0.0,84,0.00,,,0.52,Wunderground v.1.15,2013-05-23 22:20:00,
2013-05-23 18:25:00,73.3,68.2,29.82,SW,229,0.0,0.0,84,0.00,,,0.52,Wunderground v.1.15,2013-05-23 22:25:00,
2013-05-23 18:30:00,73.2,68.1,29.82,SW,229,0.0,0.0,84,0.00,,,0.52,Wunderground v.1.15,2013-05-23 22:30:00,
2013-05-23 18:40:00,73.5,68.4,29.82,SW,229,0.0,0.0,84,0.00,,,0.52,Wunderground v.1.15,2013-05-23 22:40:00,
2013-05-23 18:45:00,73.9,68.8,29.82,SW,229,0.0,0.0,84,0.00,,,0.52,Wunderground v.1.15,2013-05-23 22:45:00,
2013-05-23 18:50:00,74.3,68.8,29.83,SW,229,0.0,0.0,83,0.00,,,0.52,Wunderground v.1.15,2013-05-23 22:50:00,
2013-05-23 18:55:00,74.6,68.4,29.83,SW,229,0.0,0.0,81,0.00,,,0.52,Wunderground v.1.15,2013-05-23 22:55:00,
2013-05-23 19:00:00,74.9,68.7,29.83,SW,229,0.0,0.0,81,0.00,,,0.52,Wunderground v.1.15,2013-05-23 23:00:00,
2013-05-23 19:05:00,75.1,68.9,29.83,SW,229,0.0,0.0,81,0.00,,,0.52,Wunderground v.1.15,2013-05-23 23:05:00,
2013-05-23 19:10:00,75.1,68.9,29.83,SW,229,0.0,0.0,81,0.00,,,0.52,Wunderground v.1.15,2013-05-23 23:10:00,
2013-05-23 19:15:00,75.0,68.4,29.84,SW,229,0.0,0.0,80,0.00,,,0.52,Wunderground v.1.15,2013-05-23 23:15:00,
2013-05-23 19:20:00,74.8,68.2,29.84,SW,229,0.0,0.0,80,0.00,,,0.52,Wunderground v.1.15,2013-05-23 23:20:00,
2013-05-23 19:25:00,74.7,68.5,29.84,SW,229,0.0,0.0,81,0.00,,,0.52,Wunderground v.1.15,2013-05-23 23:25:00,
2013-05-23 19:30:00,74.6,68.7,29.84,SW,229,0.0,0.0,82,0.00,,,0.52,Wunderground v.1.15,2013-05-23 23:30:00,
2013-05-23 19:35:00,74.5,68.6,29.83,SW,229,0.0,0.0,82,0.00,,,0.52,Wunderground v.1.15,2013-05-23 23:35:00,
2013-05-23 19:40:00,74.4,68.5,29.83,SW,229,0.0,0.0,82,0.00,,,0.52,Wunderground v.1.15,2013-05-23 23:40:00,
2013-05-23 19:45:00,74.2,68.3,29.83,SW,229,0.0,0.0,82,0.00,,,0.52,Wunderground v.1.15,2013-05-23 23:45:00,
2013-05-23 19:50:00,74.0,68.5,29.83,SW,229,0.0,0.0,83,0.00,,,0.52,Wunderground v.1.15,2013-05-23 23:50:00,
2013-05-23 20:00:00,73.6,68.1,29.82,SW,229,0.0,0.0,83,0.00,,,0.52,Wunderground v.1.15,2013-05-24 00:00:00,
2013-05-23 20:05:00,73.3,67.8,29.82,SW,229,0.0,0.0,83,0.00,,,0.52,Wunderground v.1.15,2013-05-24 00:05:00,
2013-05-23 20:10:00,73.0,67.9,29.82,SW,229,0.0,0.0,84,0.00,,,0.52,Wunderground v.1.15,2013-05-24 00:10:00,
2013-05-23 20:15:00,72.7,67.9,29.82,SW,229,0.0,0.0,85,0.00,,,0.52,Wunderground v.1.15,2013-05-24 00:15:00,
2013-05-23 20:20:00,72.3,67.9,29.82,SW,229,0.0,0.0,86,0.00,,,0.52,Wunderground v.1.15,2013-05-24 00:20:00,
2013-05-23 20:30:00,71.6,67.2,29.81,East,87,0.0,0.0,86,0.00,,,0.52,Wunderground v.1.15,2013-05-24 00:30:00,
2013-05-23 20:40:00,70.8,67.1,29.81,East,87,0.0,0.0,88,0.00,,,0.52,Wunderground v.1.15,2013-05-24 00:40:00,
2013-05-23 20:45:00,70.6,67.2,29.81,SSE,148,0.0,0.0,89,0.00,,,0.52,Wunderground v.1.15,2013-05-24 00:45:00,
2013-05-23 20:50:00,70.3,66.9,29.81,SE,142,0.0,0.0,89,0.00,,,0.52,Wunderground v.1.15,2013-05-24 00:50:00,
2013-05-23 20:55:00,70.2,67.1,29.81,SE,142,0.0,0.0,90,0.00,,,0.52,Wunderground v.1.15,2013-05-24 00:55:00,
2013-05-23 21:00:00,69.9,66.8,29.81,SE,142,0.0,0.0,90,0.00,,,0.52,Wunderground v.1.15,2013-05-24 01:00:00,
2013-05-23 21:05:00,69.7,66.6,29.82,SE,142,0.0,0.0,90,0.00,,,0.52,Wunderground v.1.15,2013-05-24 01:05:00,
2013-05-23 21:10:00,69.4,66.7,29.82,SE,142,0.0,0.0,91,0.00,,,0.52,Wunderground v.1.15,2013-05-24 01:10:00,
2013-05-23 21:20:00,69.1,66.4,29.83,SE,142,0.0,0.0,91,0.00,,,0.52,Wunderground v.1.15,2013-05-24 01:20:00,
2013-05-23 21:25:00,68.9,66.2,29.84,SE,142,0.0,0.0,91,0.00,,,0.52,Wunderground v.1.15,2013-05-24 01:25:00,
2013-05-23 21:30:00,68.7,66.3,29.84,SE,142,0.0,0.0,92,0.00,,,0.52,Wunderground v.1.15,2013-05-24 01:30:00,
2013-05-23 21:40:00,68.4,66.0,29.84,SE,142,0.0,0.0,92,0.00,,,0.52,Wunderground v.1.15,2013-05-24 01:40:00,
2013-05-23 21:45:00,68.2,65.8,29.85,SE,142,0.0,0.0,92,0.00,,,0.52,Wunderground v.1.15,2013-05-24 01:45:00,
2013-05-23 21:50:00,68.0,65.9,29.85,SE,142,0.0,0.0,93,0.00,,,0.52,Wunderground v.1.15,2013-05-24 01:50:00,
2013-05-23 21:55:00,67.8,65.7,29.85,SE,142,0.0,0.0,93,0.00,,,0.52,Wunderground v.1.15,2013-05-24 01:55:00,
2013-05-23 22:00:00,67.6,65.5,29.85,SE,142,0.0,0.0,93,0.00,,,0.52,Wunderground v.1.15,2013-05-24 02:00:00,
2013-05-23 22:05:00,67.6,65.5,29.85,SE,142,0.0,0.0,93,0.00,,,0.52,Wunderground v.1.15,2013-05-24 02:05:00,
2013-05-23 22:10:00,67.4,65.6,29.86,SE,142,0.0,0.0,94,0.00,,,0.52,Wunderground v.1.15,2013-05-24 02:10:00,
2013-05-23 22:15:00,67.4,65.6,29.86,SE,142,0.0,0.0,94,0.00,,,0.52,Wunderground v.1.15,2013-05-24 02:15:00,
2013-05-23 22:20:00,67.2,65.4,29.86,SE,142,0.0,0.0,94,0.00,,,0.52,Wunderground v.1.15,2013-05-24 02:20:00,
2013-05-23 22:25:00,67.1,65.3,29.86,SE,142,0.0,0.0,94,0.00,,,0.52,Wunderground v.1.15,2013-05-24 02:25:00,
2013-05-23 22:30:00,67.0,65.2,29.86,SE,142,0.0,0.0,94,0.00,,,0.52,Wunderground v.1.15,2013-05-24 02:30:00,
2013-05-23 22:35:00,67.0,65.2,29.86,SE,142,0.0,0.0,94,0.00,,,0.52,Wunderground v.1.15,2013-05-24 02:35:00,
2013-05-23 22:40:00,66.8,65.0,29.86,SE,142,0.0,0.0,94,0.00,,,0.52,Wunderground v.1.15,2013-05-24 02:40:00,
2013-05-23 22:45:00,66.7,64.9,29.87,South,186,0.0,1.0,94,0.00,,,0.52,Wunderground v.1.15,2013-05-24 02:45:00,
2013-05-23 22:50:00,66.8,65.3,29.87,South,186,0.0,0.0,95,0.00,,,0.52,Wunderground v.1.15,2013-05-24 02:50:00,
2013-05-23 22:55:00,66.8,65.0,29.87,North,5,0.0,0.0,94,0.34,,,0.54,Wunderground v.1.15,2013-05-24 02:55:00,
2013-05-23 23:00:00,66.6,64.5,29.87,ESE,109,0.0,0.0,93,0.10,,,0.54,Wunderground v.1.15,2013-05-24 03:00:00,
2013-05-23 23:05:00,66.3,63.9,29.87,SSE,161,0.0,0.0,92,0.06,,,0.54,Wunderground v.1.15,2013-05-24 03:05:00,
2013-05-23 23:10:00,66.1,64.0,29.87,SSE,161,0.0,0.0,93,0.04,,,0.54,Wunderground v.1.15,2013-05-24 03:10:00,
2013-05-23 23:15:00,65.8,63.7,29.86,SSE,161,0.0,0.0,93,0.00,,,0.54,Wunderground v.1.15,2013-05-24 03:15:00,
2013-05-23 23:20:00,65.5,63.4,29.86,SSE,161,0.0,0.0,93,0.00,,,0.54,Wunderground v.1.15,2013-05-24 03:20:00,
2013-05-23 23:25:00,65.3,63.2,29.86,SSE,161,0.0,0.0,93,0.00,,,0.54,Wunderground v.1.15,2013-05-24 03:25:00,
2013-05-23 23:30:00,65.1,63.0,29.85,SSE,161,0.0,0.0,93,0.00,,,0.54,Wunderground v.1.15,2013-05-24 03:30:00,
2013-05-23 23:35:00,64.9,63.1,29.85,SSE,161,0.0,0.0,94,0.00,,,0.54,Wunderground v.1.15,2013-05-24 03:35:00,
2013-05-23 23:40:00,64.8,63.0,29.85,SSE,161,0.0,0.0,94,0.00,,,0.54,Wunderground v.1.15,2013-05-24 03:40:00,
2013-05-23 23:45:00,64.8,63.3,29.85,SSE,161,0.0,0.0,95,0.00,,,0.54,Wunderground v.1.15,2013-05-24 03:45:00,
2013-05-23 23:50:00,64.7,63.2,29.85,SSE,161,0.0,0.0,95,0.00,,,0.54,Wunderground v.1.15,2013-05-24 03:50:00,
2013-05-23 23:55:00,64.6,63.1,29.85,SSE,161,0.0,0.0,95,0.00,,,0.54,Wunderground v.1.15,2013-05-24 03:55:00,